Bothnia — PBLG — position and weather

sailwx.info

Track history (hours):
 
Tides and Currents Weather Stations Pressure Air Temp Water Temp Dewpoint Dewpoint Depression Visibility Wind Speed Wind Dir Waves Ship Positions

Bothnia

Last reported at 2017-Nov-18 04:27 UTC. Time now 2017-Nov-18 04:39 UTC.
Position N 51°40' E 003°20'.

Length 82 m; draft 4.5 m.

Type: Cargo ship. MMSI: 244741000.

Date/timePositionNaut miles runAvg speedWind from/ knotsBaromVisibWave heightAir tempDewpointWater temp
2017-Nov-18 04:27N 51°40' E 003°20'511.6
2017-Nov-18 04:00N 51°35' E 003°24'612.7
2017-Nov-18 03:30N 51°30' E 003°29'611.6
2017-Nov-18 03:00N 51°26' E 003°36'5 9.2
2017-Nov-18 02:30N 51°24' E 003°43'511.0
2017-Nov-18 02:00N 51°21' E 003°50'5 9.5
2017-Nov-18 01:30N 51°23' E 003°57'4 7.7
2017-Nov-18 01:00N 51°26' E 004°01'4 8.0
2017-Nov-18 00:30N 51°23' E 004°03'4 8.7
2017-Nov-18 00:00N 51°23' E 004°10'4 8.3
2017-Nov-17 23:30N 51°21' E 004°16'4 8.9
2017-Nov-17 23:00N 51°17' E 004°19'1 1.4
2017-Nov-17 22:30N 51°17' E 004°20'0 0.0
2017-Nov-17 22:01N 51°17' E 004°20'1 1.0
2017-Nov-17 21:30N 51°16' E 004°20'1 1.5
2017-Nov-17 21:01N 51°16' E 004°21'2 4.4
2017-Nov-17 20:30N 51°16' E 004°25'0 0.0
2017-Nov-17 20:00N 51°16' E 004°25'0 0.0
2017-Nov-17 19:30N 51°16' E 004°25'0 0.0
2017-Nov-17 19:01N 51°16' E 004°25'0 0.0
2017-Nov-17 18:30N 51°16' E 004°25'0 0.0
2017-Nov-17 18:00N 51°16' E 004°25'0 0.0
2017-Nov-17 17:31N 51°16' E 004°25'0 0.0
2017-Nov-17 17:00N 51°16' E 004°25'0 0.0
2017-Nov-17 16:31N 51°16' E 004°25'0 0.0
2017-Nov-17 16:00N 51°16' E 004°25'0 0.0
2017-Nov-17 15:30N 51°16' E 004°25'0 0.0
2017-Nov-17 15:01N 51°16' E 004°25'0 0.0
2017-Nov-17 14:31N 51°16' E 004°25'0 0.0
2017-Nov-17 14:00N 51°16' E 004°25'0 0.0
2017-Nov-17 13:31N 51°16' E 004°25'0 0.0
2017-Nov-17 13:01N 51°16' E 004°25'0 0.0
2017-Nov-17 12:30N 51°16' E 004°25'0 0.0
2017-Nov-17 12:01N 51°16' E 004°25'0 0.0
2017-Nov-17 11:30N 51°16' E 004°25'0 0.0
2017-Nov-17 11:00N 51°16' E 004°25'0 0.0
2017-Nov-17 10:31N 51°16' E 004°25'0 0.0
2017-Nov-17 10:01N 51°16' E 004°25'0 0.0
2017-Nov-17 09:31N 51°16' E 004°25'0 0.0
2017-Nov-17 09:00N 51°16' E 004°25'0 0.0
2017-Nov-17 08:31N 51°16' E 004°25'0 0.5
2017-Nov-17 08:00N 51°15' E 004°24'0 0.0
2017-Nov-17 07:30N 51°15' E 004°24'0 0.0
2017-Nov-17 07:00N 51°15' E 004°24'0 0.0
2017-Nov-17 06:30N 51°15' E 004°24'0 0.0
2017-Nov-17 06:01N 51°15' E 004°24'0 0.0
2017-Nov-17 05:31N 51°15' E 004°24'0 0.0
2017-Nov-17 05:00N 51°15' E 004°24'0 0.0
2017-Nov-17 04:31N 51°15' E 004°24'0 0.0
2017-Nov-17 04:00N 51°15' E 004°24'0 0.0
2017-Nov-17 03:31N 51°16' E 004°24'0 0.0
2017-Nov-17 03:00N 51°15' E 004°24'0 0.0
2017-Nov-17 02:30N 51°16' E 004°24'0 0.0
2017-Nov-17 02:01N 51°15' E 004°24'0 0.0
2017-Nov-17 01:31N 51°15' E 004°24'0 0.0
2017-Nov-17 01:00N 51°15' E 004°24'0 0.0
2017-Nov-17 00:30N 51°15' E 004°24'0 0.0
2017-Nov-17 00:01N 51°15' E 004°24'0 0.0
2017-Nov-16 23:31N 51°15' E 004°24'0 0.0
2017-Nov-16 23:00N 51°15' E 004°24'0 0.0
2017-Nov-16 22:31N 51°15' E 004°24'0 0.0
2017-Nov-16 22:01N 51°15' E 004°24'0 0.0
2017-Nov-16 21:30N 51°15' E 004°24'0 0.0
2017-Nov-16 21:00N 51°15' E 004°24'0 0.0
2017-Nov-16 20:31N 51°15' E 004°24'0 0.0
2017-Nov-16 20:01N 51°15' E 004°24'0 0.0
2017-Nov-16 19:30N 51°15' E 004°24'0 0.0
2017-Nov-16 19:01N 51°15' E 004°24'0 0.0
2017-Nov-16 18:30N 51°15' E 004°24'0 0.0
2017-Nov-16 18:01N 51°15' E 004°24'0 0.0
2017-Nov-16 17:30N 51°15' E 004°24'0 0.0
2017-Nov-16 17:00N 51°15' E 004°24'0 0.0
2017-Nov-16 16:31N 51°15' E 004°24'0 0.0
2017-Nov-16 16:01N 51°15' E 004°24'0 0.0
2017-Nov-16 15:30N 51°15' E 004°24'0 0.0
2017-Nov-16 15:00N 51°15' E 004°24'0 0.0
2017-Nov-16 14:31N 51°15' E 004°24'0 0.0
2017-Nov-16 14:01N 51°15' E 004°24'0 0.0
2017-Nov-16 13:30N 51°15' E 004°24'0 0.0
2017-Nov-16 13:01N 51°15' E 004°24'0 0.0
2017-Nov-16 12:31N 51°15' E 004°24'0 0.0
2017-Nov-16 12:01N 51°15' E 004°24'0 0.0
2017-Nov-16 11:30N 51°15' E 004°24'0 0.0
2017-Nov-16 11:00N 51°15' E 004°24'0 0.0
2017-Nov-16 10:30N 51°15' E 004°24'0 0.0
2017-Nov-16 10:01N 51°15' E 004°24'0 0.0
2017-Nov-16 09:30N 51°15' E 004°24'0 0.0
2017-Nov-16 09:01N 51°15' E 004°24'0 0.0
2017-Nov-16 08:30N 51°15' E 004°24'0 0.0
2017-Nov-16 08:01N 51°15' E 004°24'0 0.0
2017-Nov-16 07:30N 51°15' E 004°24'0 0.0
2017-Nov-16 07:01N 51°15' E 004°24'0 0.0
2017-Nov-16 06:31N 51°15' E 004°24'0 0.0
2017-Nov-16 06:00N 51°15' E 004°24'0 0.4
2017-Nov-16 05:31N 51°16' E 004°24'3 6.0
2017-Nov-16 05:00N 51°17' E 004°20'4 7.5
2017-Nov-16 04:30N 51°21' E 004°18'0 0.7
2017-Nov-16 04:00N 51°21' E 004°17'0 0.3
2017-Nov-16 03:30N 51°21' E 004°17'3 6.7
2017-Nov-16 03:00N 51°23' E 004°13'4 7.4
2017-Nov-16 02:30N 51°22' E 004°07'4 8.0
2017-Nov-16 02:00N 51°25' E 004°02'3 5.4
2017-Nov-16 01:30N 51°24' E 003°58'510.0
2017-Nov-16 01:00N 51°21' E 003°52'2 4.1
2017-Nov-16 00:30N 51°20' E 003°49'2 3.0
2017-Nov-16 00:01N 51°18' E 003°50'0 0.2
2017-Nov-15 23:30N 51°18' E 003°50'0 0.0
2017-Nov-15 23:00N 51°18' E 003°50'0 0.0
2017-Nov-15 22:30N 51°18' E 003°50'0 0.0
2017-Nov-15 22:00N 51°18' E 003°50'0 0.0
2017-Nov-15 21:30N 51°18' E 003°50'0 0.0
2017-Nov-15 21:00N 51°18' E 003°50'0 0.0
2017-Nov-15 20:30N 51°18' E 003°50'0 0.0
2017-Nov-15 20:00N 51°18' E 003°50'0 0.0
2017-Nov-15 19:30N 51°18' E 003°50'0 0.0
2017-Nov-15 19:00N 51°18' E 003°50'0 0.0
2017-Nov-15 18:30N 51°18' E 003°50'0 0.0
2017-Nov-15 18:00N 51°18' E 003°50'0 0.0
2017-Nov-15 17:30N 51°18' E 003°50'0 0.0
2017-Nov-15 17:00N 51°18' E 003°50'0 0.0
2017-Nov-15 16:30N 51°18' E 003°50'0 0.0
2017-Nov-15 16:00N 51°18' E 003°50'0 0.0
2017-Nov-15 15:30N 51°18' E 003°50'0 0.0
2017-Nov-15 15:00N 51°18' E 003°50'0 0.0
2017-Nov-15 14:30N 51°18' E 003°50'0 0.0
2017-Nov-15 14:01N 51°18' E 003°50'0 0.0
2017-Nov-15 13:30N 51°18' E 003°50'0 0.0
2017-Nov-15 13:00N 51°18' E 003°50'0 0.0
2017-Nov-15 12:30N 51°18' E 003°50'0 0.0
2017-Nov-15 12:00N 51°18' E 003°50'0 0.0
2017-Nov-15 11:30N 51°18' E 003°50'0 0.0
2017-Nov-15 11:00N 51°18' E 003°50'0 0.0
2017-Nov-15 10:30N 51°18' E 003°50'0 0.0
2017-Nov-15 10:00N 51°18' E 003°50'0 0.0
2017-Nov-15 09:30N 51°18' E 003°50'0 0.7
2017-Nov-15 09:01N 51°19' E 003°50'2 3.2
2017-Nov-15 08:30N 51°20' E 003°49'0 0.6
2017-Nov-15 08:00N 51°20' E 003°49'0 0.4
2017-Nov-15 07:30N 51°21' E 003°49'4 7.2
2017-Nov-15 07:00N 51°22' E 003°44'4 7.3
2017-Nov-15 06:30N 51°26' E 003°41'4 8.3
2017-Nov-15 06:00N 51°26' E 003°35'611.0
2017-Nov-15 05:30N 51°30' E 003°28'67 8.7
2017-Nov-14 21:49N 52°36' E 003°48'310.1
2017-Nov-14 21:29N 52°39' E 003°50'510.2
2017-Nov-14 21:00N 52°43' E 003°53'510.7
2017-Nov-14 20:30N 52°48' E 003°56'611.1
2017-Nov-14 19:58N 52°54' E 003°59'610.7
2017-Nov-14 19:26N 52°59' E 004°05'145 8.2
2017-Nov-14 01:37N 54°01' E 007°46'2 9.8
2017-Nov-14 01:25N 54°01' E 007°49'410.1
2017-Nov-14 01:00N 54°01' E 007°56'510.5
2017-Nov-14 00:30N 54°01' E 008°05'611.0
2017-Nov-14 00:00N 54°01' E 008°14'612.2
2017-Nov-13 23:30N 53°60' E 008°24'612.8
2017-Nov-13 23:00N 53°58' E 008°35'611.7
2017-Nov-13 22:30N 53°54' E 008°42'510.5
2017-Nov-13 22:00N 53°51' E 008°49'187 7.9
2017-Nov-12 22:19N 54°60' E 013°47'1310.8
2017-Nov-12 21:06N 55°07' E 014°07'210.6
2017-Nov-12 20:56N 55°08' E 014°09'510.4
2017-Nov-12 20:26N 55°12' E 014°15'510.5
2017-Nov-12 20:00N 55°15' E 014°20'510.8
2017-Nov-12 19:30N 55°19' E 014°26'510.8
2017-Nov-12 19:00N 55°23' E 014°33'510.4
2017-Nov-12 18:30N 55°27' E 014°40'510.4
2017-Nov-12 18:00N 55°30' E 014°47'510.4
2017-Nov-12 17:30N 55°32' E 014°55'710.3
2017-Nov-12 16:52N 55°35' E 015°05'410.3
2017-Nov-12 16:30N 55°37' E 015°11'510.2
2017-Nov-12 16:00N 55°40' E 015°19'510.1
2017-Nov-12 15:30N 55°43' E 015°26'510.1
2017-Nov-12 15:00N 55°45' E 015°34'510.2
2017-Nov-12 14:30N 55°48' E 015°42'510.1
2017-Nov-12 14:00N 55°51' E 015°50'510.5
2017-Nov-12 13:30N 55°53' E 015°58'510.6
2017-Nov-12 13:00N 55°56' E 016°06'510.5
2017-Nov-12 12:30N 55°59' E 016°14'510.5
2017-Nov-12 12:00N 56°01' E 016°22'510.7
2017-Nov-12 11:30N 56°04' E 016°30'510.7
2017-Nov-12 11:00N 56°07' E 016°38'314 9.2
2017-Nov-11 01:00N 59°33' E 024°03'510.1
2017-Nov-11 00:30N 59°35' E 024°12'510.1
2017-Nov-11 00:01N 59°37' E 024°21'5 9.5
2017-Nov-10 23:31N 59°38' E 024°30'510.1
2017-Nov-10 23:00N 59°38' E 024°40'4 9.0
2017-Nov-10 22:31N 59°36' E 024°48'1 2.0
2017-Nov-10 22:01N 59°35' E 024°49'0 0.0
2017-Nov-10 21:30N 59°35' E 024°49'0 0.0
2017-Nov-10 21:01N 59°35' E 024°49'0 0.0
2017-Nov-10 20:31N 59°35' E 024°49'0 0.0
2017-Nov-10 20:00N 59°35' E 024°49'1 1.2
2017-Nov-10 19:30N 59°35' E 024°49'5 9.8
2017-Nov-10 19:00N 59°39' E 024°55'5 9.9
2017-Nov-10 18:30N 59°41' E 025°05'510.1
2017-Nov-10 17:59N 59°42' E 025°14'32 9.8
2017-Nov-10 14:43N 59°56' E 026°12'2 9.4
2017-Nov-10 14:31N 59°57' E 026°16'5 9.3
2017-Nov-10 14:01N 59°59' E 026°24'5 9.2
2017-Nov-10 13:31N 60°01' E 026°32'5 9.4
2017-Nov-10 13:01N 60°01' E 026°42'5 9.7
2017-Nov-10 12:31N 60°00' E 026°51'5 9.6
2017-Nov-10 12:01N 59°60' E 027°01'5 9.1
2017-Nov-10 11:31N 60°01' E 027°09'5 9.3
2017-Nov-10 11:00N 60°04' E 027°17'5 9.1
2017-Nov-10 10:31N 60°06' E 027°25'4 8.6
2017-Nov-10 10:01N 60°09' E 027°32'4 8.2
2017-Nov-10 09:31N 60°10' E 027°40'4 8.0
2017-Nov-10 09:01N 60°13' E 027°46'4 7.9
2017-Nov-10 08:31N 60°16' E 027°51'4 7.9
2017-Nov-10 08:01N 60°19' E 027°56'4 7.5
2017-Nov-10 07:31N 60°22' E 028°00'3 6.9
2017-Nov-10 07:01N 60°25' E 028°05'3 6.7
2017-Nov-10 06:31N 60°26' E 028°11'4 7.1
2017-Nov-10 06:01N 60°27' E 028°18'  
Track history (hours):
 
Tides and Currents Weather Stations Pressure Air Temp Water Temp Dewpoint Dewpoint Depression Visibility Wind Speed Wind Dir Waves Ship Positions

Bothnia

Last reported at 2017-Nov-18 04:27 UTC. Time now 2017-Nov-18 04:39 UTC.
Position N 51°40' E 003°20'.

Length 82 m; draft 4.5 m.

Type: Cargo ship. MMSI: 244741000.

Date/timePositionNaut miles runAvg speedWind from/ knotsBaromVisibWave heightAir tempDewpointWater temp
2017-Nov-18 04:27N 51°40' E 003°20'511.6
2017-Nov-18 04:00N 51°35' E 003°24'612.7
2017-Nov-18 03:30N 51°30' E 003°29'611.6
2017-Nov-18 03:00N 51°26' E 003°36'5 9.2
2017-Nov-18 02:30N 51°24' E 003°43'511.0
2017-Nov-18 02:00N 51°21' E 003°50'5 9.5
2017-Nov-18 01:30N 51°23' E 003°57'4 7.7
2017-Nov-18 01:00N 51°26' E 004°01'4 8.0
2017-Nov-18 00:30N 51°23' E 004°03'4 8.7
2017-Nov-18 00:00N 51°23' E 004°10'4 8.3
2017-Nov-17 23:30N 51°21' E 004°16'4 8.9
2017-Nov-17 23:00N 51°17' E 004°19'1 1.4
2017-Nov-17 22:30N 51°17' E 004°20'0 0.0
2017-Nov-17 22:01N 51°17' E 004°20'1 1.0
2017-Nov-17 21:30N 51°16' E 004°20'1 1.5
2017-Nov-17 21:01N 51°16' E 004°21'2 4.4
2017-Nov-17 20:30N 51°16' E 004°25'0 0.0
2017-Nov-17 20:00N 51°16' E 004°25'0 0.0
2017-Nov-17 19:30N 51°16' E 004°25'0 0.0
2017-Nov-17 19:01N 51°16' E 004°25'0 0.0
2017-Nov-17 18:30N 51°16' E 004°25'0 0.0
2017-Nov-17 18:00N 51°16' E 004°25'0 0.0
2017-Nov-17 17:31N 51°16' E 004°25'0 0.0
2017-Nov-17 17:00N 51°16' E 004°25'0 0.0
2017-Nov-17 16:31N 51°16' E 004°25'0 0.0
2017-Nov-17 16:00N 51°16' E 004°25'0 0.0
2017-Nov-17 15:30N 51°16' E 004°25'0 0.0
2017-Nov-17 15:01N 51°16' E 004°25'0 0.0
2017-Nov-17 14:31N 51°16' E 004°25'0 0.0
2017-Nov-17 14:00N 51°16' E 004°25'0 0.0
2017-Nov-17 13:31N 51°16' E 004°25'0 0.0
2017-Nov-17 13:01N 51°16' E 004°25'0 0.0
2017-Nov-17 12:30N 51°16' E 004°25'0 0.0
2017-Nov-17 12:01N 51°16' E 004°25'0 0.0
2017-Nov-17 11:30N 51°16' E 004°25'0 0.0
2017-Nov-17 11:00N 51°16' E 004°25'0 0.0
2017-Nov-17 10:31N 51°16' E 004°25'0 0.0
2017-Nov-17 10:01N 51°16' E 004°25'0 0.0
2017-Nov-17 09:31N 51°16' E 004°25'0 0.0
2017-Nov-17 09:00N 51°16' E 004°25'0 0.0
2017-Nov-17 08:31N 51°16' E 004°25'0 0.5
2017-Nov-17 08:00N 51°15' E 004°24'0 0.0
2017-Nov-17 07:30N 51°15' E 004°24'0 0.0
2017-Nov-17 07:00N 51°15' E 004°24'0 0.0
2017-Nov-17 06:30N 51°15' E 004°24'0 0.0
2017-Nov-17 06:01N 51°15' E 004°24'0 0.0
2017-Nov-17 05:31N 51°15' E 004°24'0 0.0
2017-Nov-17 05:00N 51°15' E 004°24'0 0.0
2017-Nov-17 04:31N 51°15' E 004°24'0 0.0
2017-Nov-17 04:00N 51°15' E 004°24'0 0.0
2017-Nov-17 03:31N 51°16' E 004°24'0 0.0
2017-Nov-17 03:00N 51°15' E 004°24'0 0.0
2017-Nov-17 02:30N 51°16' E 004°24'0 0.0
2017-Nov-17 02:01N 51°15' E 004°24'0 0.0
2017-Nov-17 01:31N 51°15' E 004°24'0 0.0
2017-Nov-17 01:00N 51°15' E 004°24'0 0.0
2017-Nov-17 00:30N 51°15' E 004°24'0 0.0
2017-Nov-17 00:01N 51°15' E 004°24'0 0.0
2017-Nov-16 23:31N 51°15' E 004°24'0 0.0
2017-Nov-16 23:00N 51°15' E 004°24'0 0.0
2017-Nov-16 22:31N 51°15' E 004°24'0 0.0
2017-Nov-16 22:01N 51°15' E 004°24'0 0.0
2017-Nov-16 21:30N 51°15' E 004°24'0 0.0
2017-Nov-16 21:00N 51°15' E 004°24'0 0.0
2017-Nov-16 20:31N 51°15' E 004°24'0 0.0
2017-Nov-16 20:01N 51°15' E 004°24'0 0.0
2017-Nov-16 19:30N 51°15' E 004°24'0 0.0
2017-Nov-16 19:01N 51°15' E 004°24'0 0.0
2017-Nov-16 18:30N 51°15' E 004°24'0 0.0
2017-Nov-16 18:01N 51°15' E 004°24'0 0.0
2017-Nov-16 17:30N 51°15' E 004°24'0 0.0
2017-Nov-16 17:00N 51°15' E 004°24'0 0.0
2017-Nov-16 16:31N 51°15' E 004°24'0 0.0
2017-Nov-16 16:01N 51°15' E 004°24'0 0.0
2017-Nov-16 15:30N 51°15' E 004°24'0 0.0
2017-Nov-16 15:00N 51°15' E 004°24'0 0.0
2017-Nov-16 14:31N 51°15' E 004°24'0 0.0
2017-Nov-16 14:01N 51°15' E 004°24'0 0.0
2017-Nov-16 13:30N 51°15' E 004°24'0 0.0
2017-Nov-16 13:01N 51°15' E 004°24'0 0.0
2017-Nov-16 12:31N 51°15' E 004°24'0 0.0
2017-Nov-16 12:01N 51°15' E 004°24'0 0.0
2017-Nov-16 11:30N 51°15' E 004°24'0 0.0
2017-Nov-16 11:00N 51°15' E 004°24'0 0.0
2017-Nov-16 10:30N 51°15' E 004°24'0 0.0
2017-Nov-16 10:01N 51°15' E 004°24'0 0.0
2017-Nov-16 09:30N 51°15' E 004°24'0 0.0
2017-Nov-16 09:01N 51°15' E 004°24'0 0.0
2017-Nov-16 08:30N 51°15' E 004°24'0 0.0
2017-Nov-16 08:01N 51°15' E 004°24'0 0.0
2017-Nov-16 07:30N 51°15' E 004°24'0 0.0
2017-Nov-16 07:01N 51°15' E 004°24'0 0.0
2017-Nov-16 06:31N 51°15' E 004°24'0 0.0
2017-Nov-16 06:00N 51°15' E 004°24'0 0.4
2017-Nov-16 05:31N 51°16' E 004°24'3 6.0
2017-Nov-16 05:00N 51°17' E 004°20'4 7.5
2017-Nov-16 04:30N 51°21' E 004°18'0 0.7
2017-Nov-16 04:00N 51°21' E 004°17'0 0.3
2017-Nov-16 03:30N 51°21' E 004°17'3 6.7
2017-Nov-16 03:00N 51°23' E 004°13'4 7.4
2017-Nov-16 02:30N 51°22' E 004°07'4 8.0
2017-Nov-16 02:00N 51°25' E 004°02'3 5.4
2017-Nov-16 01:30N 51°24' E 003°58'510.0
2017-Nov-16 01:00N 51°21' E 003°52'2 4.1
2017-Nov-16 00:30N 51°20' E 003°49'2 3.0
2017-Nov-16 00:01N 51°18' E 003°50'0 0.2
2017-Nov-15 23:30N 51°18' E 003°50'0 0.0
2017-Nov-15 23:00N 51°18' E 003°50'0 0.0
2017-Nov-15 22:30N 51°18' E 003°50'0 0.0
2017-Nov-15 22:00N 51°18' E 003°50'0 0.0
2017-Nov-15 21:30N 51°18' E 003°50'0 0.0
2017-Nov-15 21:00N 51°18' E 003°50'0 0.0
2017-Nov-15 20:30N 51°18' E 003°50'0 0.0
2017-Nov-15 20:00N 51°18' E 003°50'0 0.0
2017-Nov-15 19:30N 51°18' E 003°50'0 0.0
2017-Nov-15 19:00N 51°18' E 003°50'0 0.0
2017-Nov-15 18:30N 51°18' E 003°50'0 0.0
2017-Nov-15 18:00N 51°18' E 003°50'0 0.0
2017-Nov-15 17:30N 51°18' E 003°50'0 0.0
2017-Nov-15 17:00N 51°18' E 003°50'0 0.0
2017-Nov-15 16:30N 51°18' E 003°50'0 0.0
2017-Nov-15 16:00N 51°18' E 003°50'0 0.0
2017-Nov-15 15:30N 51°18' E 003°50'0 0.0
2017-Nov-15 15:00N 51°18' E 003°50'0 0.0
2017-Nov-15 14:30N 51°18' E 003°50'0 0.0
2017-Nov-15 14:01N 51°18' E 003°50'0 0.0
2017-Nov-15 13:30N 51°18' E 003°50'0 0.0
2017-Nov-15 13:00N 51°18' E 003°50'0 0.0
2017-Nov-15 12:30N 51°18' E 003°50'0 0.0
2017-Nov-15 12:00N 51°18' E 003°50'0 0.0
2017-Nov-15 11:30N 51°18' E 003°50'0 0.0
2017-Nov-15 11:00N 51°18' E 003°50'0 0.0
2017-Nov-15 10:30N 51°18' E 003°50'0 0.0
2017-Nov-15 10:00N 51°18' E 003°50'0 0.0
2017-Nov-15 09:30N 51°18' E 003°50'0 0.7
2017-Nov-15 09:01N 51°19' E 003°50'2 3.2
2017-Nov-15 08:30N 51°20' E 003°49'0 0.6
2017-Nov-15 08:00N 51°20' E 003°49'0 0.4
2017-Nov-15 07:30N 51°21' E 003°49'4 7.2
2017-Nov-15 07:00N 51°22' E 003°44'4 7.3
2017-Nov-15 06:30N 51°26' E 003°41'4 8.3
2017-Nov-15 06:00N 51°26' E 003°35'611.0
2017-Nov-15 05:30N 51°30' E 003°28'67 8.7
2017-Nov-14 21:49N 52°36' E 003°48'310.1
2017-Nov-14 21:29N 52°39' E 003°50'510.2
2017-Nov-14 21:00N 52°43' E 003°53'510.7
2017-Nov-14 20:30N 52°48' E 003°56'611.1
2017-Nov-14 19:58N 52°54' E 003°59'610.7
2017-Nov-14 19:26N 52°59' E 004°05'145 8.2
2017-Nov-14 01:37N 54°01' E 007°46'2 9.8
2017-Nov-14 01:25N 54°01' E 007°49'410.1
2017-Nov-14 01:00N 54°01' E 007°56'510.5
2017-Nov-14 00:30N 54°01' E 008°05'611.0
2017-Nov-14 00:00N 54°01' E 008°14'612.2
2017-Nov-13 23:30N 53°60' E 008°24'612.8
2017-Nov-13 23:00N 53°58' E 008°35'611.7
2017-Nov-13 22:30N 53°54' E 008°42'510.5
2017-Nov-13 22:00N 53°51' E 008°49'187 7.9
2017-Nov-12 22:19N 54°60' E 013°47'1310.8
2017-Nov-12 21:06N 55°07' E 014°07'210.6
2017-Nov-12 20:56N 55°08' E 014°09'510.4
2017-Nov-12 20:26N 55°12' E 014°15'510.5
2017-Nov-12 20:00N 55°15' E 014°20'510.8
2017-Nov-12 19:30N 55°19' E 014°26'510.8
2017-Nov-12 19:00N 55°23' E 014°33'510.4
2017-Nov-12 18:30N 55°27' E 014°40'510.4
2017-Nov-12 18:00N 55°30' E 014°47'510.4
2017-Nov-12 17:30N 55°32' E 014°55'710.3
2017-Nov-12 16:52N 55°35' E 015°05'410.3
2017-Nov-12 16:30N 55°37' E 015°11'510.2
2017-Nov-12 16:00N 55°40' E 015°19'510.1
2017-Nov-12 15:30N 55°43' E 015°26'510.1
2017-Nov-12 15:00N 55°45' E 015°34'510.2
2017-Nov-12 14:30N 55°48' E 015°42'510.1
2017-Nov-12 14:00N 55°51' E 015°50'510.5
2017-Nov-12 13:30N 55°53' E 015°58'510.6
2017-Nov-12 13:00N 55°56' E 016°06'510.5
2017-Nov-12 12:30N 55°59' E 016°14'510.5
2017-Nov-12 12:00N 56°01' E 016°22'510.7
2017-Nov-12 11:30N 56°04' E 016°30'510.7
2017-Nov-12 11:00N 56°07' E 016°38'314 9.2
2017-Nov-11 01:00N 59°33' E 024°03'510.1
2017-Nov-11 00:30N 59°35' E 024°12'510.1
2017-Nov-11 00:01N 59°37' E 024°21'5 9.5
2017-Nov-10 23:31N 59°38' E 024°30'510.1
2017-Nov-10 23:00N 59°38' E 024°40'4 9.0
2017-Nov-10 22:31N 59°36' E 024°48'1 2.0
2017-Nov-10 22:01N 59°35' E 024°49'0 0.0
2017-Nov-10 21:30N 59°35' E 024°49'0 0.0
2017-Nov-10 21:01N 59°35' E 024°49'0 0.0
2017-Nov-10 20:31N 59°35' E 024°49'0 0.0
2017-Nov-10 20:00N 59°35' E 024°49'1 1.2
2017-Nov-10 19:30N 59°35' E 024°49'5 9.8
2017-Nov-10 19:00N 59°39' E 024°55'5 9.9
2017-Nov-10 18:30N 59°41' E 025°05'510.1
2017-Nov-10 17:59N 59°42' E 025°14'32 9.8
2017-Nov-10 14:43N 59°56' E 026°12'2 9.4
2017-Nov-10 14:31N 59°57' E 026°16'5 9.3
2017-Nov-10 14:01N 59°59' E 026°24'5 9.2
2017-Nov-10 13:31N 60°01' E 026°32'5 9.4
2017-Nov-10 13:01N 60°01' E 026°42'5 9.7
2017-Nov-10 12:31N 60°00' E 026°51'5 9.6
2017-Nov-10 12:01N 59°60' E 027°01'5 9.1
2017-Nov-10 11:31N 60°01' E 027°09'5 9.3
2017-Nov-10 11:00N 60°04' E 027°17'5 9.1
2017-Nov-10 10:31N 60°06' E 027°25'4 8.6
2017-Nov-10 10:01N 60°09' E 027°32'4 8.2
2017-Nov-10 09:31N 60°10' E 027°40'4 8.0
2017-Nov-10 09:01N 60°13' E 027°46'4 7.9
2017-Nov-10 08:31N 60°16' E 027°51'4 7.9
2017-Nov-10 08:01N 60°19' E 027°56'4 7.5
2017-Nov-10 07:31N 60°22' E 028°00'3 6.9
2017-Nov-10 07:01N 60°25' E 028°05'3 6.7
2017-Nov-10 06:31N 60°26' E 028°11'4 7.1
2017-Nov-10 06:01N 60°27' E 028°18'  

Dump ship's entire track history